X  Schließen METAR Luftfahrt Wetterdaten     LOWS Salzburg Airport
Temperatur
9°C Temperatur
2°C Taupunkt
62% Feuchtigkeit



Wind
7 MPS
11 km/h
3 m/s
6 KTS



250°
WSW
Aktuelle Wetterlage

Teilweise bewölkt Teilweise bewölkt
Luftdruck 1013.88 (hPa) - 29.94 (inHg)
Sichtweite 6 (Meile) - 9.7 (km)
Flughafen
Flughafen Code LOWS

Position : Salzburg Airport
Entfernung: 67 (mi)

Metar:
LOWS 191050Z 25006KT 190V290 9999 FEW002 SCT050 BKN100 09/02 Q1014 NOSIG

Zeit: 2024-04-19 12:50 CEST